sensor_id;sensor_type;location;lat;lon;timestamp;pressure;altitude;pressure_sealevel;temperature;humidity
11712;BME280;5912;51.034;6.984;2022-09-09T00:01:28;100224.03;;;19.37;98.74
11712;BME280;5912;51.034;6.984;2022-09-09T00:06:25;100210.97;;;19.35;97.61
11712;BME280;5912;51.034;6.984;2022-09-09T00:09:17;100214.72;;;19.34;97.93
11712;BME280;5912;51.034;6.984;2022-09-09T00:11:53;100195.78;;;19.31;97.46
11712;BME280;5912;51.034;6.984;2022-09-09T00:17:50;100186.69;;;19.22;96.81
11712;BME280;5912;51.034;6.984;2022-09-09T00:20:47;100193.66;;;19.17;94.54
11712;BME280;5912;51.034;6.984;2022-09-09T00:28:39;100198.50;;;19.00;94.77
11712;BME280;5912;51.034;6.984;2022-09-09T00:31:12;100185.72;;;18.97;95.28
11712;BME280;5912;51.034;6.984;2022-09-09T00:33:39;100188.63;;;18.96;95.81
11712;BME280;5912;51.034;6.984;2022-09-09T00:36:12;100196.88;;;18.99;96.63
11712;BME280;5912;51.034;6.984;2022-09-09T00:38:43;100194.75;;;19.01;96.85
11712;BME280;5912;51.034;6.984;2022-09-09T00:44:33;100191.81;;;19.08;97.69
11712;BME280;5912;51.034;6.984;2022-09-09T00:47:18;100198.44;;;19.10;97.81
11712;BME280;5912;51.034;6.984;2022-09-09T00:52:51;100192.84;;;19.17;99.21
11712;BME280;5912;51.034;6.984;2022-09-09T00:55:28;100198.19;;;19.17;99.35
11712;BME280;5912;51.034;6.984;2022-09-09T00:57:57;100177.94;;;19.01;99.57
11712;BME280;5912;51.034;6.984;2022-09-09T01:00:29;100198.19;;;19.17;99.73
11712;BME280;5912;51.034;6.984;2022-09-09T01:06:40;100187.78;;;19.15;99.40
11712;BME280;5912;51.034;6.984;2022-09-09T01:09:18;100128.19;;;18.76;99.32
11712;BME280;5912;51.034;6.984;2022-09-09T01:12:16;100190.47;;;19.10;99.43
11712;BME280;5912;51.034;6.984;2022-09-09T01:14:47;100189.94;;;19.08;99.62
11712;BME280;5912;51.034;6.984;2022-09-09T01:17:33;100202.47;;;19.08;100.00
11712;BME280;5912;51.034;6.984;2022-09-09T01:28:40;100200.06;;;18.96;98.97
11712;BME280;5912;51.034;6.984;2022-09-09T01:31:07;100194.25;;;18.89;97.65
11712;BME280;5912;51.034;6.984;2022-09-09T01:33:37;100190.22;;;18.77;95.24
11712;BME280;5912;51.034;6.984;2022-09-09T01:36:08;100136.22;;;18.41;93.00
11712;BME280;5912;51.034;6.984;2022-09-09T01:38:35;100176.94;;;18.67;92.89
11712;BME280;5912;51.034;6.984;2022-09-09T01:41:02;100196.38;;;18.82;92.40
11712;BME280;5912;51.034;6.984;2022-09-09T01:43:28;100201.97;;;18.86;92.16
11712;BME280;5912;51.034;6.984;2022-09-09T01:45:56;100195.56;;;18.92;91.75
11712;BME280;5912;51.034;6.984;2022-09-09T01:48:24;100191.81;;;18.98;90.96
11712;BME280;5912;51.034;6.984;2022-09-09T01:53:59;100200.88;;;19.02;91.20
11712;BME280;5912;51.034;6.984;2022-09-09T01:56:47;100195.00;;;19.10;91.21
11712;BME280;5912;51.034;6.984;2022-09-09T02:04:55;100195.75;;;19.26;89.81
11712;BME280;5912;51.034;6.984;2022-09-09T02:07:38;100210.16;;;19.35;89.37
11712;BME280;5912;51.034;6.984;2022-09-09T02:10:21;100208.03;;;19.42;89.39
11712;BME280;5912;51.034;6.984;2022-09-09T02:12:51;100207.19;;;19.46;89.18
11712;BME280;5912;51.034;6.984;2022-09-09T02:15:43;100201.84;;;19.51;88.91
11712;BME280;5912;51.034;6.984;2022-09-09T02:18:13;100214.09;;;19.57;88.68
11712;BME280;5912;51.034;6.984;2022-09-09T02:20:44;100192.78;;;19.52;88.79
11712;BME280;5912;51.034;6.984;2022-09-09T02:23:16;100202.06;;;19.60;88.80
11712;BME280;5912;51.034;6.984;2022-09-09T02:25:43;100200.50;;;19.59;89.61
11712;BME280;5912;51.034;6.984;2022-09-09T02:28:10;100195.16;;;19.54;90.42
11712;BME280;5912;51.034;6.984;2022-09-09T02:30:39;100194.91;;;19.50;90.90
11712;BME280;5912;51.034;6.984;2022-09-09T02:33:08;100192.28;;;19.45;91.44
11712;BME280;5912;51.034;6.984;2022-09-09T02:35:38;100197.88;;;19.44;91.69
11712;BME280;5912;51.034;6.984;2022-09-09T02:38:08;100196.00;;;19.39;91.88
11712;BME280;5912;51.034;6.984;2022-09-09T02:40:35;100194.16;;;19.35;91.74
11712;BME280;5912;51.034;6.984;2022-09-09T02:43:00;100194.44;;;19.38;91.42
11712;BME280;5912;51.034;6.984;2022-09-09T02:45:34;100189.66;;;19.35;91.09
11712;BME280;5912;51.034;6.984;2022-09-09T02:53:18;100190.16;;;19.27;92.66
11712;BME280;5912;51.034;6.984;2022-09-09T02:55:59;100185.66;;;19.23;93.37
11712;BME280;5912;51.034;6.984;2022-09-09T02:58:27;100190.19;;;19.17;93.31
11712;BME280;5912;51.034;6.984;2022-09-09T03:00:53;100189.13;;;19.13;93.51
11712;BME280;5912;51.034;6.984;2022-09-09T03:03:19;100187.78;;;19.10;93.67
11712;BME280;5912;51.034;6.984;2022-09-09T03:05:45;100191.53;;;19.14;92.65
11712;BME280;5912;51.034;6.984;2022-09-09T03:08:11;100185.41;;;19.14;92.74
11712;BME280;5912;51.034;6.984;2022-09-09T03:10:38;100180.06;;;19.19;92.33
11712;BME280;5912;51.034;6.984;2022-09-09T03:13:04;100175.25;;;19.21;91.84
11712;BME280;5912;51.034;6.984;2022-09-09T03:15:31;100177.38;;;19.19;92.07
11712;BME280;5912;51.034;6.984;2022-09-09T03:17:57;100183.00;;;19.23;91.90
11712;BME280;5912;51.034;6.984;2022-09-09T03:20:24;100179.25;;;19.18;91.86
11712;BME280;5912;51.034;6.984;2022-09-09T03:22:51;100182.19;;;19.22;92.45
11712;BME280;5912;51.034;6.984;2022-09-09T03:25:16;100169.13;;;19.21;92.27
11712;BME280;5912;51.034;6.984;2022-09-09T03:27:41;100176.31;;;19.20;92.37
11712;BME280;5912;51.034;6.984;2022-09-09T03:30:07;100173.38;;;19.22;92.60
11712;BME280;5912;51.034;6.984;2022-09-09T03:32:32;100172.34;;;19.17;92.47
11712;BME280;5912;51.034;6.984;2022-09-09T03:34:58;100178.44;;;19.23;92.39
11712;BME280;5912;51.034;6.984;2022-09-09T03:37:23;100177.38;;;19.24;92.40
11712;BME280;5912;51.034;6.984;2022-09-09T03:39:48;100182.97;;;19.28;91.43
11712;BME280;5912;51.034;6.984;2022-09-09T03:42:15;100180.31;;;19.33;91.50
11712;BME280;5912;51.034;6.984;2022-09-09T03:44:44;100183.50;;;19.35;91.46
11712;BME280;5912;51.034;6.984;2022-09-09T03:47:13;100166.47;;;19.31;90.56
11712;BME280;5912;51.034;6.984;2022-09-09T03:49:38;100182.94;;;19.43;90.74
11712;BME280;5912;51.034;6.984;2022-09-09T03:52:03;100179.47;;;19.42;91.51
11712;BME280;5912;51.034;6.984;2022-09-09T03:54:29;100182.41;;;19.41;91.54
11712;BME280;5912;51.034;6.984;2022-09-09T03:56:55;100179.75;;;19.41;91.24
11712;BME280;5912;51.034;6.984;2022-09-09T03:59:20;100180.03;;;19.39;91.17
11712;BME280;5912;51.034;6.984;2022-09-09T04:01:46;100181.38;;;19.37;91.55
11712;BME280;5912;51.034;6.984;2022-09-09T04:04:12;100180.28;;;19.43;91.90
11712;BME280;5912;51.034;6.984;2022-09-09T04:09:52;100182.97;;;19.38;91.97
11712;BME280;5912;51.034;6.984;2022-09-09T04:12:18;100178.97;;;19.35;92.53
11712;BME280;5912;51.034;6.984;2022-09-09T04:14:43;100182.72;;;19.34;92.89
11712;BME280;5912;51.034;6.984;2022-09-09T04:17:08;100180.31;;;19.33;93.43
11712;BME280;5912;51.034;6.984;2022-09-09T04:19:34;100184.31;;;19.30;93.10
11712;BME280;5912;51.034;6.984;2022-09-09T04:21:59;100179.78;;;19.31;92.58
11712;BME280;5912;51.034;6.984;2022-09-09T04:24:24;100179.00;;;19.30;92.77
11712;BME280;5912;51.034;6.984;2022-09-09T04:26:51;100173.38;;;19.27;93.14
11712;BME280;5912;51.034;6.984;2022-09-09T04:29:17;100173.63;;;19.25;93.17
11712;BME280;5912;51.034;6.984;2022-09-09T04:31:42;100173.63;;;19.25;93.15
11712;BME280;5912;51.034;6.984;2022-09-09T04:34:10;100169.13;;;19.26;92.90
11712;BME280;5912;51.034;6.984;2022-09-09T04:36:36;100175.00;;;19.23;93.60
11712;BME280;5912;51.034;6.984;2022-09-09T04:39:02;100180.31;;;19.23;93.71
11712;BME280;5912;51.034;6.984;2022-09-09T04:41:27;100176.59;;;19.18;93.67
11712;BME280;5912;51.034;6.984;2022-09-09T04:43:53;100181.13;;;19.18;93.82
11712;BME280;5912;51.034;6.984;2022-09-09T04:46:19;100181.63;;;19.20;93.81
11712;BME280;5912;51.034;6.984;2022-09-09T04:48:44;100156.91;;;19.04;93.20
11712;BME280;5912;51.034;6.984;2022-09-09T04:51:13;100194.97;;;19.25;93.20
11712;BME280;5912;51.034;6.984;2022-09-09T04:53:38;100188.03;;;19.24;93.46
11712;BME280;5912;51.034;6.984;2022-09-09T04:59:26;100184.28;;;19.25;93.19
11712;BME280;5912;51.034;6.984;2022-09-09T05:01:51;100194.69;;;19.27;93.42
11712;BME280;5912;51.034;6.984;2022-09-09T05:04:18;100193.09;;;19.26;93.75
11712;BME280;5912;51.034;6.984;2022-09-09T05:06:44;100190.97;;;19.23;94.04
11712;BME280;5912;51.034;6.984;2022-09-09T05:09:10;100191.25;;;19.21;94.31
11712;BME280;5912;51.034;6.984;2022-09-09T05:11:35;100188.84;;;19.20;94.31
11712;BME280;5912;51.034;6.984;2022-09-09T05:14:02;100195.25;;;19.18;94.62
11712;BME280;5912;51.034;6.984;2022-09-09T05:16:27;100187.78;;;19.15;94.71
11712;BME280;5912;51.034;6.984;2022-09-09T05:18:53;100187.78;;;19.15;95.22
11712;BME280;5912;51.034;6.984;2022-09-09T05:21:20;100193.13;;;19.15;95.32
11712;BME280;5912;51.034;6.984;2022-09-09T05:23:46;100192.34;;;19.15;95.95
11712;BME280;5912;51.034;6.984;2022-09-09T05:26:15;100151.59;;;18.94;97.47
11712;BME280;5912;51.034;6.984;2022-09-09T05:28:40;100184.09;;;19.06;99.05
11712;BME280;5912;51.034;6.984;2022-09-09T05:31:07;100180.09;;;18.99;99.18
11712;BME280;5912;51.034;6.984;2022-09-09T05:33:34;100189.69;;;18.95;99.74
11712;BME280;5912;51.034;6.984;2022-09-09T05:36:12;100188.09;;;18.89;100.00
11712;BME280;5912;51.034;6.984;2022-09-09T05:38:41;100187.56;;;18.87;100.00
11712;BME280;5912;51.034;6.984;2022-09-09T05:41:08;100180.91;;;18.79;100.00
11712;BME280;5912;51.034;6.984;2022-09-09T05:43:34;100182.50;;;18.80;100.00
11712;BME280;5912;51.034;6.984;2022-09-09T05:46:08;100191.56;;;18.79;100.00
11712;BME280;5912;51.034;6.984;2022-09-09T05:48:35;100194.50;;;18.78;100.00
11712;BME280;5912;51.034;6.984;2022-09-09T05:51:16;100194.50;;;18.78;100.00
11712;BME280;5912;51.034;6.984;2022-09-09T05:56:51;100191.56;;;18.74;100.00
11712;BME280;5912;51.034;6.984;2022-09-09T05:59:17;100199.28;;;18.81;100.00
11712;BME280;5912;51.034;6.984;2022-09-09T06:01:43;100187.06;;;18.80;100.00
11712;BME280;5912;51.034;6.984;2022-09-09T06:04:10;100191.03;;;18.87;100.00
11712;BME280;5912;51.034;6.984;2022-09-09T06:06:36;100199.31;;;18.91;100.00
11712;BME280;5912;51.034;6.984;2022-09-09T06:09:03;100196.59;;;18.96;100.00
11712;BME280;5912;51.034;6.984;2022-09-09T06:11:32;100193.16;;;19.00;99.90
11712;BME280;5912;51.034;6.984;2022-09-09T06:13:58;100188.34;;;19.07;99.69
11712;BME280;5912;51.034;6.984;2022-09-09T06:16:25;100192.56;;;19.13;100.00
11712;BME280;5912;51.034;6.984;2022-09-09T06:18:52;100189.91;;;19.24;100.00
11712;BME280;5912;51.034;6.984;2022-09-09T06:21:30;100194.72;;;19.32;99.77
11712;BME280;5912;51.034;6.984;2022-09-09T06:23:56;100198.41;;;19.41;99.88
11712;BME280;5912;51.034;6.984;2022-09-09T06:26:23;100137.69;;;19.12;99.15
11712;BME280;5912;51.034;6.984;2022-09-09T06:29:09;100200.47;;;19.69;98.49
11712;BME280;5912;51.034;6.984;2022-09-09T06:31:35;100196.94;;;19.78;97.17
11712;BME280;5912;51.034;6.984;2022-09-09T06:34:04;100202.53;;;19.82;96.31
11712;BME280;5912;51.034;6.984;2022-09-09T06:36:35;100207.56;;;19.88;95.07
11712;BME280;5912;51.034;6.984;2022-09-09T06:39:02;100209.69;;;19.91;93.07
11712;BME280;5912;51.034;6.984;2022-09-09T06:41:29;100205.94;;;19.92;93.20
11712;BME280;5912;51.034;6.984;2022-09-09T06:43:55;100205.66;;;19.94;92.77
11712;BME280;5912;51.034;6.984;2022-09-09T06:46:29;100205.66;;;19.94;92.81
11712;BME280;5912;51.034;6.984;2022-09-09T06:48:56;100203.25;;;19.97;93.16
11712;BME280;5912;51.034;6.984;2022-09-09T06:51:23;100187.72;;;20.04;93.02
11712;BME280;5912;51.034;6.984;2022-09-09T06:53:54;100185.16;;;20.33;91.45
11712;BME280;5912;51.034;6.984;2022-09-09T06:56:27;100199.53;;;20.76;90.66
11712;BME280;5912;51.034;6.984;2022-09-09T06:58:55;100204.31;;;21.12;88.55
11712;BME280;5912;51.034;6.984;2022-09-09T07:01:23;100207.09;;;21.73;85.66
11712;BME280;5912;51.034;6.984;2022-09-09T07:03:51;100202.75;;;22.56;81.81
11712;BME280;5912;51.034;6.984;2022-09-09T07:06:22;100207.44;;;23.28;75.81
11712;BME280;5912;51.034;6.984;2022-09-09T07:08:59;100202.53;;;23.58;72.32
11712;BME280;5912;51.034;6.984;2022-09-09T07:11:28;100204.25;;;24.16;69.54
11712;BME280;5912;51.034;6.984;2022-09-09T07:13:54;100197.13;;;24.69;67.47
11712;BME280;5912;51.034;6.984;2022-09-09T07:16:21;100206.78;;;25.32;60.07
11712;BME280;5912;51.034;6.984;2022-09-09T07:18:50;100205.94;;;25.53;57.41
11712;BME280;5912;51.034;6.984;2022-09-09T07:21:16;100170.19;;;25.61;58.23
11712;BME280;5912;51.034;6.984;2022-09-09T07:23:42;100216.41;;;26.11;57.99
11712;BME280;5912;51.034;6.984;2022-09-09T07:26:13;100220.06;;;26.32;55.48
11712;BME280;5912;51.034;6.984;2022-09-09T07:28:39;100213.56;;;26.16;54.06
11712;BME280;5912;51.034;6.984;2022-09-09T07:31:06;100228.78;;;25.56;51.51
11712;BME280;5912;51.034;6.984;2022-09-09T07:33:33;100229.88;;;24.71;54.87
11712;BME280;5912;51.034;6.984;2022-09-09T07:36:08;100222.28;;;24.16;58.41
11712;BME280;5912;51.034;6.984;2022-09-09T07:38:41;100235.16;;;24.63;59.33
11712;BME280;5912;51.034;6.984;2022-09-09T07:41:10;100235.09;;;25.21;56.40
11712;BME280;5912;51.034;6.984;2022-09-09T07:43:38;100228.84;;;25.90;52.70
11712;BME280;5912;51.034;6.984;2022-09-09T07:46:05;100237.47;;;26.00;51.93
11712;BME280;5912;51.034;6.984;2022-09-09T07:48:31;100244.16;;;25.64;52.53
11712;BME280;5912;51.034;6.984;2022-09-09T07:51:10;100244.69;;;25.44;52.69
11712;BME280;5912;51.034;6.984;2022-09-09T07:53:37;100256.44;;;25.48;52.62
11712;BME280;5912;51.034;6.984;2022-09-09T07:56:11;100252.91;;;25.39;52.15
11712;BME280;5912;51.034;6.984;2022-09-09T07:58:38;100254.09;;;25.55;52.94
11712;BME280;5912;51.034;6.984;2022-09-09T08:01:12;100246.31;;;25.45;50.71
11712;BME280;5912;51.034;6.984;2022-09-09T08:03:38;100256.25;;;25.14;51.41
11712;BME280;5912;51.034;6.984;2022-09-09T08:06:06;100255.34;;;24.74;52.32
11712;BME280;5912;51.034;6.984;2022-09-09T08:08:32;100248.03;;;24.30;53.43
11712;BME280;5912;51.034;6.984;2022-09-09T08:11:08;100246.97;;;23.91;56.12
11712;BME280;5912;51.034;6.984;2022-09-09T08:13:36;100244.72;;;23.57;56.36
11712;BME280;5912;51.034;6.984;2022-09-09T08:16:15;100236.13;;;23.28;58.46
11712;BME280;5912;51.034;6.984;2022-09-09T08:18:41;100243.25;;;23.19;59.27
11712;BME280;5912;51.034;6.984;2022-09-09T08:21:12;100233.81;;;23.21;59.44
11712;BME280;5912;51.034;6.984;2022-09-09T08:23:39;100245.22;;;23.13;56.67
11712;BME280;5912;51.034;6.984;2022-09-09T08:26:10;100237.63;;;23.02;57.17
11712;BME280;5912;51.034;6.984;2022-09-09T08:31:58;100221.34;;;22.66;57.21
11712;BME280;5912;51.034;6.984;2022-09-09T08:34:24;100248.09;;;22.71;57.19
11712;BME280;5912;51.034;6.984;2022-09-09T08:36:52;100243.13;;;22.78;56.98
11712;BME280;5912;51.034;6.984;2022-09-09T08:39:20;100244.47;;;22.94;56.86
11712;BME280;5912;51.034;6.984;2022-09-09T08:42:17;100236.69;;;23.25;56.56
11712;BME280;5912;51.034;6.984;2022-09-09T08:44:59;100240.50;;;23.78;55.29
11712;BME280;5912;51.034;6.984;2022-09-09T08:50:22;100231.97;;;24.03;52.19
11712;BME280;5912;51.034;6.984;2022-09-09T08:53:19;100251.44;;;24.09;52.66
11712;BME280;5912;51.034;6.984;2022-09-09T08:58:29;100263.78;;;23.83;52.41
11712;BME280;5912;51.034;6.984;2022-09-09T09:01:23;100264.97;;;23.77;51.05
11712;BME280;5912;51.034;6.984;2022-09-09T09:09:35;100265.06;;;23.85;50.28
11712;BME280;5912;51.034;6.984;2022-09-09T09:12:01;100266.56;;;23.91;49.62
11712;BME280;5912;51.034;6.984;2022-09-09T09:14:31;100267.88;;;24.07;49.42
11712;BME280;5912;51.034;6.984;2022-09-09T09:17:05;100265.31;;;24.38;48.16
11712;BME280;5912;51.034;6.984;2022-09-09T09:19:33;100265.22;;;24.65;46.80
11712;BME280;5912;51.034;6.984;2022-09-09T09:22:06;100265.63;;;24.72;46.70
11712;BME280;5912;51.034;6.984;2022-09-09T09:24:55;100270.41;;;24.61;47.86
11712;BME280;5912;51.034;6.984;2022-09-09T09:27:39;100269.28;;;24.40;47.21
11712;BME280;5912;51.034;6.984;2022-09-09T09:30:14;100261.97;;;24.19;48.06
11712;BME280;5912;51.034;6.984;2022-09-09T09:32:45;100262.59;;;24.02;49.19
11712;BME280;5912;51.034;6.984;2022-09-09T09:35:15;100250.47;;;23.78;49.87
11712;BME280;5912;51.034;6.984;2022-09-09T09:41:03;100267.16;;;23.61;49.73
11712;BME280;5912;51.034;6.984;2022-09-09T09:43:31;100266.56;;;23.51;50.61
11712;BME280;5912;51.034;6.984;2022-09-09T09:45:57;100268.31;;;23.28;50.57
11712;BME280;5912;51.034;6.984;2022-09-09T09:48:24;100264.72;;;23.19;51.84
11712;BME280;5912;51.034;6.984;2022-09-09T09:51:01;100265.69;;;23.09;51.66
11712;BME280;5912;51.034;6.984;2022-09-09T09:53:32;100272.00;;;23.00;53.22
11712;BME280;5912;51.034;6.984;2022-09-09T09:56:10;100268.53;;;23.13;53.16
11712;BME280;5912;51.034;6.984;2022-09-09T10:01:22;100274.78;;;23.41;53.90
11712;BME280;5912;51.034;6.984;2022-09-09T10:03:59;100261.00;;;23.74;53.28
11712;BME280;5912;51.034;6.984;2022-09-09T10:06:36;100270.34;;;24.53;50.95
11712;BME280;5912;51.034;6.984;2022-09-09T10:09:17;100270.69;;;25.18;48.14
11712;BME280;5912;51.034;6.984;2022-09-09T10:20:18;100275.94;;;25.53;45.73
11712;BME280;5912;51.034;6.984;2022-09-09T10:23:01;100266.28;;;25.52;45.62
11712;BME280;5912;51.034;6.984;2022-09-09T10:25:43;100270.72;;;25.26;46.23
11712;BME280;5912;51.034;6.984;2022-09-09T10:28:33;100263.66;;;25.08;47.46
11712;BME280;5912;51.034;6.984;2022-09-09T10:31:40;100267.38;;;25.21;46.72
11712;BME280;5912;51.034;6.984;2022-09-09T10:36:46;100263.59;;;25.52;46.18
11712;BME280;5912;51.034;6.984;2022-09-09T10:39:33;100258.28;;;25.39;45.42
11712;BME280;5912;51.034;6.984;2022-09-09T10:42:05;100250.56;;;25.46;45.81
11712;BME280;5912;51.034;6.984;2022-09-09T10:52:36;100259.50;;;25.33;46.36
11712;BME280;5912;51.034;6.984;2022-09-09T10:55:18;100248.94;;;25.36;47.02
11712;BME280;5912;51.034;6.984;2022-09-09T11:00:17;100249.25;;;25.74;45.90
11712;BME280;5912;51.034;6.984;2022-09-09T11:02:47;100254.97;;;25.81;45.67
11712;BME280;5912;51.034;6.984;2022-09-09T11:05:20;100240.06;;;26.74;42.71
11712;BME280;5912;51.034;6.984;2022-09-09T11:07:57;100241.44;;;27.81;41.39
11712;BME280;5912;51.034;6.984;2022-09-09T11:10:38;100240.31;;;27.90;39.94
11712;BME280;5912;51.034;6.984;2022-09-09T11:18:59;100236.06;;;27.43;40.93
11712;BME280;5912;51.034;6.984;2022-09-09T11:21:35;100238.19;;;27.37;42.51
11712;BME280;5912;51.034;6.984;2022-09-09T11:24:10;100233.72;;;27.33;41.51
11712;BME280;5912;51.034;6.984;2022-09-09T11:26:46;100234.50;;;26.70;42.38
11712;BME280;5912;51.034;6.984;2022-09-09T11:35:09;100225.06;;;25.91;44.26
11712;BME280;5912;51.034;6.984;2022-09-09T11:40:27;100231.47;;;25.56;45.29
11712;BME280;5912;51.034;6.984;2022-09-09T11:43:05;100232.00;;;25.36;44.47
11712;BME280;5912;51.034;6.984;2022-09-09T11:45:35;100229.34;;;25.14;44.37
11712;BME280;5912;51.034;6.984;2022-09-09T11:48:03;100232.75;;;24.97;45.18
11712;BME280;5912;51.034;6.984;2022-09-09T11:50:34;100239.09;;;25.01;44.67
11712;BME280;5912;51.034;6.984;2022-09-09T11:53:21;100237.50;;;25.00;46.03
11712;BME280;5912;51.034;6.984;2022-09-09T11:55:48;100231.19;;;25.05;44.71
11712;BME280;5912;51.034;6.984;2022-09-09T11:58:24;100235.44;;;24.97;45.01
11712;BME280;5912;51.034;6.984;2022-09-09T12:00:49;100227.91;;;24.86;45.97
11712;BME280;5912;51.034;6.984;2022-09-09T12:03:41;100229.81;;;24.85;46.23
11712;BME280;5912;51.034;6.984;2022-09-09T12:06:15;100231.97;;;24.74;46.22
11712;BME280;5912;51.034;6.984;2022-09-09T12:08:45;100235.31;;;24.80;46.63
11712;BME280;5912;51.034;6.984;2022-09-09T12:11:11;100236.09;;;24.81;45.80
11712;BME280;5912;51.034;6.984;2022-09-09T12:13:37;100231.22;;;24.83;45.94
11712;BME280;5912;51.034;6.984;2022-09-09T12:16:03;100234.53;;;24.80;45.58
11712;BME280;5912;51.034;6.984;2022-09-09T12:18:38;100222.75;;;24.67;46.47
11712;BME280;5912;51.034;6.984;2022-09-09T12:21:15;100237.91;;;24.49;46.00
11712;BME280;5912;51.034;6.984;2022-09-09T12:23:55;100226.53;;;24.30;47.23
11712;BME280;5912;51.034;6.984;2022-09-09T12:26:32;100221.72;;;24.05;47.48
11712;BME280;5912;51.034;6.984;2022-09-09T12:29:12;100213.84;;;23.95;47.90
11712;BME280;5912;51.034;6.984;2022-09-09T12:34:44;100226.41;;;24.00;47.96
11712;BME280;5912;51.034;6.984;2022-09-09T12:37:29;100229.34;;;24.25;46.86
11712;BME280;5912;51.034;6.984;2022-09-09T12:39:59;100227.81;;;24.55;47.30
11712;BME280;5912;51.034;6.984;2022-09-09T12:42:26;100222.34;;;24.82;46.66
11712;BME280;5912;51.034;6.984;2022-09-09T12:44:54;100220.34;;;24.88;45.04
11712;BME280;5912;51.034;6.984;2022-09-09T12:47:24;100204.69;;;24.67;44.95
11712;BME280;5912;51.034;6.984;2022-09-09T12:49:51;100216.97;;;24.60;45.84
11712;BME280;5912;51.034;6.984;2022-09-09T12:52:24;100210.53;;;24.47;46.71
11712;BME280;5912;51.034;6.984;2022-09-09T12:54:51;100202.09;;;24.18;47.49
11712;BME280;5912;51.034;6.984;2022-09-09T12:57:19;100210.38;;;23.95;48.61
11712;BME280;5912;51.034;6.984;2022-09-09T12:59:47;100245.28;;;23.68;50.92
11712;BME280;5912;51.034;6.984;2022-09-09T13:02:25;100226.03;;;23.52;57.07
11712;BME280;5912;51.034;6.984;2022-09-09T13:04:51;100234.75;;;23.58;61.17
11712;BME280;5912;51.034;6.984;2022-09-09T13:07:18;100230.81;;;24.31;63.04
11712;BME280;5912;51.034;6.984;2022-09-09T13:09:45;100231.00;;;25.62;58.94
11712;BME280;5912;51.034;6.984;2022-09-09T13:12:24;100226.72;;;26.69;54.52
11712;BME280;5912;51.034;6.984;2022-09-09T13:14:53;100228.22;;;27.58;51.61
11712;BME280;5912;51.034;6.984;2022-09-09T13:17:24;100210.00;;;28.05;49.36
11712;BME280;5912;51.034;6.984;2022-09-09T13:19:51;100223.91;;;28.16;48.08
11712;BME280;5912;51.034;6.984;2022-09-09T13:22:33;100221.34;;;27.99;47.18
11712;BME280;5912;51.034;6.984;2022-09-09T13:25:18;100215.44;;;27.47;47.70
11712;BME280;5912;51.034;6.984;2022-09-09T13:28:20;100210.47;;;27.03;49.09
11712;BME280;5912;51.034;6.984;2022-09-09T13:31:02;100207.81;;;26.60;50.72
11712;BME280;5912;51.034;6.984;2022-09-09T13:33:36;100201.03;;;26.20;51.99
11712;BME280;5912;51.034;6.984;2022-09-09T13:36:08;100195.38;;;25.74;53.82
11712;BME280;5912;51.034;6.984;2022-09-09T13:38:40;100198.72;;;25.32;55.81
11712;BME280;5912;51.034;6.984;2022-09-09T13:41:29;100192.84;;;24.91;58.12
11712;BME280;5912;51.034;6.984;2022-09-09T13:43:55;100204.94;;;24.57;61.25
11712;BME280;5912;51.034;6.984;2022-09-09T13:46:38;100199.66;;;24.30;66.23
11712;BME280;5912;51.034;6.984;2022-09-09T13:51:44;100185.13;;;24.31;71.00
11712;BME280;5912;51.034;6.984;2022-09-09T13:54:11;100189.03;;;24.47;71.59
11712;BME280;5912;51.034;6.984;2022-09-09T13:56:38;100184.50;;;24.56;71.78
11712;BME280;5912;51.034;6.984;2022-09-09T13:59:09;100179.63;;;24.58;71.53
11712;BME280;5912;51.034;6.984;2022-09-09T14:01:35;100166.31;;;24.53;69.34
11712;BME280;5912;51.034;6.984;2022-09-09T14:04:03;100169.00;;;24.75;69.21
11712;BME280;5912;51.034;6.984;2022-09-09T14:06:29;100179.03;;;24.84;69.09
11712;BME280;5912;51.034;6.984;2022-09-09T14:08:54;100180.25;;;24.77;69.67
11712;BME280;5912;51.034;6.984;2022-09-09T14:11:20;100173.63;;;24.61;70.45
11712;BME280;5912;51.034;6.984;2022-09-09T14:13:46;100149.34;;;24.22;71.23
11712;BME280;5912;51.034;6.984;2022-09-09T14:16:12;100159.16;;;24.05;72.11
11712;BME280;5912;51.034;6.984;2022-09-09T14:18:37;100169.53;;;23.71;72.43
11712;BME280;5912;51.034;6.984;2022-09-09T14:21:04;100168.28;;;23.27;74.74
11712;BME280;5912;51.034;6.984;2022-09-09T14:23:29;100176.69;;;23.07;76.84
11712;BME280;5912;51.034;6.984;2022-09-09T14:25:55;100190.03;;;22.80;79.74
11712;BME280;5912;51.034;6.984;2022-09-09T14:28:20;100222.91;;;22.54;81.86
11712;BME280;5912;51.034;6.984;2022-09-09T14:30:46;100214.84;;;22.17;85.11
11712;BME280;5912;51.034;6.984;2022-09-09T14:33:13;100209.72;;;21.78;86.70
11712;BME280;5912;51.034;6.984;2022-09-09T14:35:40;100216.03;;;21.40;87.90
11712;BME280;5912;51.034;6.984;2022-09-09T14:38:06;100207.81;;;21.08;90.12
11712;BME280;5912;51.034;6.984;2022-09-09T14:40:34;100195.13;;;20.90;91.80
11712;BME280;5912;51.034;6.984;2022-09-09T14:43:00;100201.44;;;20.70;92.95
11712;BME280;5912;51.034;6.984;2022-09-09T14:45:26;100202.09;;;20.57;94.31
11712;BME280;5912;51.034;6.984;2022-09-09T14:47:51;100198.97;;;20.45;95.31
11712;BME280;5912;51.034;6.984;2022-09-09T14:50:18;100198.00;;;20.31;94.21
11712;BME280;5912;51.034;6.984;2022-09-09T14:52:43;100195.97;;;20.13;92.75
11712;BME280;5912;51.034;6.984;2022-09-09T14:55:09;100188.56;;;19.95;92.88
11712;BME280;5912;51.034;6.984;2022-09-09T14:57:34;100197.63;;;19.99;92.69
11712;BME280;5912;51.034;6.984;2022-09-09T15:00:04;100202.69;;;20.05;92.40
11712;BME280;5912;51.034;6.984;2022-09-09T15:02:30;100190.91;;;20.16;92.30
11712;BME280;5912;51.034;6.984;2022-09-09T15:04:56;100196.97;;;20.61;90.73
11712;BME280;5912;51.034;6.984;2022-09-09T15:07:23;100203.03;;;21.05;89.98
11712;BME280;5912;51.034;6.984;2022-09-09T15:09:49;100193.69;;;21.54;89.60
11712;BME280;5912;51.034;6.984;2022-09-09T15:12:14;100197.09;;;22.02;87.80
11712;BME280;5912;51.034;6.984;2022-09-09T15:14:39;100206.88;;;22.30;86.56